Time;durP1;ratioP1;P1;durP2;ratioP2;P2;SDS_P1;SDS_P2;PMS_P1;PMS_P2;Temp;Humidity;BMP_temperature;BMP_pressure;BME280_temperature;BME280_humidity;BME280_pressure;Samples;Min_cycle;Max_cycle;Signal;HPM_P1;HPM_P2
2023/12/31 00:00:09;;;;;;;6.28;2.13;;;;;;;8.93;74.37;100863.72;7388933;19;20102;-55
2023/12/31 00:02:38;;;;;;;9.00;1.88;;;;;;;8.90;74.57;100848.06;7391108;19;20014;-58
2023/12/31 00:05:06;;;;;;;6.90;2.00;;;;;;;8.88;74.50;100849.09;7391585;19;20022;-61
2023/12/31 00:07:34;;;;;;;8.07;2.28;;;;;;;8.88;74.63;100841.19;7389405;19;20015;-60
2023/12/31 00:10:02;;;;;;;7.63;2.15;;;;;;;8.93;74.37;100845.25;7388952;19;20374;-60
2023/12/31 00:12:30;;;;;;;8.68;2.08;;;;;;;8.85;74.51;100836.94;7391423;19;20022;-59
2023/12/31 00:14:58;;;;;;;8.13;1.88;;;;;;;8.89;74.35;100835.81;7389739;19;20019;-58
2023/12/31 00:17:27;;;;;;;8.82;1.92;;;;;;;8.89;74.47;100827.03;7390660;19;20053;-53
2023/12/31 00:19:54;;;;;;;4.55;1.60;;;;;;;8.98;74.36;100827.28;7388272;19;20339;-53
2023/12/31 00:22:22;;;;;;;6.20;1.70;;;;;;;8.91;74.62;100822.50;7390809;19;20011;-54
2023/12/31 00:24:54;;;;;;;5.30;1.90;;;;;;;8.86;74.45;100821.97;7390423;19;20039;-57
2023/12/31 00:27:22;;;;;;;7.82;1.85;;;;;;;8.85;74.69;100821.09;7390589;19;20026;-58
2023/12/31 00:29:50;;;;;;;8.18;1.85;;;;;;;8.96;74.58;100812.47;7394271;19;20022;-59
2023/12/31 00:32:18;;;;;;;5.80;1.77;;;;;;;8.89;74.60;100808.53;7397235;19;20018;-58
2023/12/31 00:34:46;;;;;;;5.93;1.67;;;;;;;8.88;74.54;100810.34;7394972;19;20809;-57
2023/12/31 00:37:14;;;;;;;6.50;1.80;;;;;;;8.95;74.47;100809.00;7398062;19;20029;-55
2023/12/31 00:39:42;;;;;;;6.72;1.60;;;;;;;8.99;74.45;100807.00;7394324;19;20381;-58
2023/12/31 00:42:09;;;;;;;7.47;1.90;;;;;;;9.03;74.51;100805.84;7398031;19;20030;-55
2023/12/31 00:44:37;;;;;;;5.28;2.08;;;;;;;8.99;74.35;100797.28;7397587;19;20356;-54
2023/12/31 00:47:05;;;;;;;6.60;1.80;;;;;;;8.95;74.72;100790.50;7397314;19;20010;-55
2023/12/31 00:49:33;;;;;;;6.60;1.77;;;;;;;8.97;74.59;100793.91;7394827;19;20138;-53
2023/12/31 00:52:02;;;;;;;5.78;2.00;;;;;;;8.92;74.75;100793.34;7393485;19;20006;-64
2023/12/31 00:54:30;;;;;;;7.25;2.13;;;;;;;8.95;74.79;100779.09;7397817;19;20023;-64
2023/12/31 00:56:58;;;;;;;5.47;1.80;;;;;;;8.88;74.82;100786.56;7403075;19;20015;-64
2023/12/31 00:59:26;;;;;;;7.72;1.90;;;;;;;8.85;75.15;100783.28;7400770;19;20045;-65
2023/12/31 01:01:54;;;;;;;7.50;1.90;;;;;;;8.78;75.07;100773.16;7401472;19;20022;-65
2023/12/31 01:04:22;;;;;;;7.15;1.75;;;;;;;8.83;75.09;100775.47;7402874;19;20018;-64
2023/12/31 01:06:50;;;;;;;6.75;1.80;;;;;;;8.79;75.17;100779.28;7397335;19;20019;-64
2023/12/31 01:09:18;;;;;;;5.50;1.52;;;;;;;8.79;75.23;100771.34;7398394;19;20717;-64
2023/12/31 01:11:46;;;;;;;8.50;1.73;;;;;;;8.78;75.41;100767.03;7398702;19;20040;-64
2023/12/31 01:14:14;;;;;;;6.93;1.77;;;;;;;8.81;75.25;100760.69;7396582;19;20439;-63
2023/12/31 01:16:42;;;;;;;6.28;1.60;;;;;;;8.93;74.94;100766.00;7396619;19;20017;-64
2023/12/31 01:19:10;;;;;;;6.07;1.67;;;;;;;8.88;75.09;100762.81;7394377;19;20032;-64
2023/12/31 01:21:38;;;;;;;5.72;1.63;;;;;;;8.88;75.33;100754.88;7396010;19;20459;-64
2023/12/31 01:24:06;;;;;;;5.07;1.48;;;;;;;8.88;75.07;100760.16;7396036;19;20494;-63
2023/12/31 01:26:34;;;;;;;7.40;1.80;;;;;;;8.89;75.04;100753.97;7395797;19;20011;-64
2023/12/31 01:29:02;;;;;;;6.82;2.15;;;;;;;8.90;74.81;100753.00;7393903;19;20026;-64
2023/12/31 01:31:30;;;;;;;7.00;1.75;;;;;;;8.97;74.96;100754.28;7396005;19;20023;-63
2023/12/31 01:33:58;;;;;;;5.70;1.30;;;;;;;8.91;75.09;100751.19;7395324;19;20049;-62
2023/12/31 01:36:26;;;;;;;7.32;1.83;;;;;;;8.83;75.65;100749.06;7394276;19;20148;-62
2023/12/31 01:38:54;;;;;;;5.72;1.50;;;;;;;8.92;75.18;100747.59;7393305;19;20508;-62
2023/12/31 01:41:22;;;;;;;7.40;1.60;;;;;;;8.94;75.18;100751.84;7395056;19;20026;-63
2023/12/31 01:43:49;;;;;;;6.00;1.50;;;;;;;8.93;75.19;100741.38;7394763;19;20554;-63
2023/12/31 01:46:27;;;;;;;5.03;1.60;;;;;;;8.85;75.46;100749.81;7394804;19;20018;-63
2023/12/31 01:48:55;;;;;;;5.22;1.50;;;;;;;8.97;74.88;100741.09;7393384;19;20073;-63
2023/12/31 01:51:25;;;;;;;3.65;1.17;;;;;;;9.00;74.75;100747.94;7395256;19;20014;-64
2023/12/31 01:53:59;;;;;;;5.78;1.33;;;;;;;9.14;74.51;100749.66;7394744;19;20039;-63
2023/12/31 01:56:28;;;;;;;7.68;1.75;;;;;;;9.13;74.42;100746.16;7391060;19;20018;-62
2023/12/31 01:58:58;;;;;;;6.43;1.70;;;;;;;9.13;74.17;100737.41;7393203;19;20515;-62
2023/12/31 02:01:26;;;;;;;5.05;1.33;;;;;;;9.11;74.41;100737.50;7394923;19;20023;-63
2023/12/31 02:03:54;;;;;;;3.92;1.55;;;;;;;9.19;74.11;100729.03;7394785;19;20026;-63
2023/12/31 02:06:22;;;;;;;8.23;1.45;;;;;;;9.07;74.42;100722.81;7392785;19;20034;-62
2023/12/31 02:08:51;;;;;;;4.55;1.48;;;;;;;9.01;74.75;100718.78;7392940;19;20685;-63
2023/12/31 02:11:18;;;;;;;7.18;1.73;;;;;;;9.02;74.85;100720.47;7393883;19;20376;-63
2023/12/31 02:13:46;;;;;;;5.45;1.42;;;;;;;8.99;74.60;100696.91;7393992;19;20018;-64
2023/12/31 02:16:16;;;;;;;4.57;1.45;;;;;;;9.06;74.66;100707.06;7392037;19;20039;-63
2023/12/31 02:18:44;;;;;;;6.60;1.90;;;;;;;9.08;74.54;100697.22;7392416;19;20019;-63
2023/12/31 02:21:13;;;;;;;4.80;1.30;;;;;;;9.14;74.33;100702.09;7393971;19;20019;-59
2023/12/31 02:23:43;;;;;;;4.63;1.35;;;;;;;9.01;74.47;100695.03;7393526;19;20507;-61
2023/12/31 02:28:00;;;;;;;4.47;1.30;;;;;;;8.96;74.97;100688.34;7424441;19;20301;-62
2023/12/31 02:30:28;;;;;;;5.00;1.40;;;;;;;9.03;74.99;100690.47;7423161;19;20010;-62
2023/12/31 02:32:56;;;;;;;5.97;1.67;;;;;;;9.04;74.55;100688.66;7426756;19;20026;-63
2023/12/31 02:35:24;;;;;;;6.13;1.42;;;;;;;8.93;74.83;100681.50;7426189;19;20543;-63
2023/12/31 02:37:52;;;;;;;5.55;1.40;;;;;;;8.91;74.91;100682.53;7424839;19;20372;-63
2023/12/31 02:40:20;;;;;;;6.55;1.40;;;;;;;8.87;74.84;100673.13;7421497;19;20018;-62
2023/12/31 02:42:48;;;;;;;3.55;1.23;;;;;;;8.83;75.08;100663.75;7423660;19;20074;-63
2023/12/31 02:45:16;;;;;;;4.80;1.00;;;;;;;8.87;74.90;100675.78;7426041;19;20505;-63
2023/12/31 02:47:44;;;;;;;5.22;1.17;;;;;;;8.84;74.99;100655.69;7422000;19;20022;-63
2023/12/31 02:51:57;;;;;;;4.38;1.38;;;;;;;8.82;74.76;100652.34;7424549;19;20301;-62
2023/12/31 02:54:25;;;;;;;3.80;1.10;;;;;;;8.87;74.58;100657.28;7426110;19;20419;-63
2023/12/31 02:56:52;;;;;;;4.70;1.30;;;;;;;8.95;74.68;100665.53;7425476;19;20335;-64
2023/12/31 02:59:20;;;;;;;5.18;1.77;;;;;;;8.92;74.68;100649.88;7425092;19;20026;-64
2023/12/31 03:01:50;;;;;;;4.75;1.50;;;;;;;8.88;74.52;100658.97;7426105;19;20018;-64
2023/12/31 03:04:18;;;;;;;4.40;1.17;;;;;;;8.92;74.61;100652.53;7426989;19;20017;-64
2023/12/31 03:06:51;;;;;;;4.68;0.98;;;;;;;8.81;75.02;100655.91;7426762;19;20014;-64
2023/12/31 03:09:22;;;;;;;5.47;1.40;;;;;;;8.89;74.66;100647.47;7424760;19;20022;-64
2023/12/31 03:11:53;;;;;;;3.08;1.13;;;;;;;8.91;74.51;100649.06;7423762;19;20014;-64
2023/12/31 03:14:21;;;;;;;5.93;1.40;;;;;;;8.99;74.25;100643.25;7426776;19;20014;-64
2023/12/31 03:16:48;;;;;;;5.00;1.40;;;;;;;8.87;74.58;100633.53;7425368;19;20014;-64
2023/12/31 03:19:18;;;;;;;5.47;1.38;;;;;;;8.81;74.79;100623.38;7424427;19;20022;-64
2023/12/31 03:21:46;;;;;;;3.08;1.13;;;;;;;8.89;74.46;100628.97;7426579;19;20018;-64
2023/12/31 03:24:14;;;;;;;6.32;1.52;;;;;;;8.91;74.50;100633.22;7425968;19;20029;-64
2023/12/31 03:26:41;;;;;;;6.53;1.42;;;;;;;8.93;74.28;100633.97;7426495;19;20037;-64
2023/12/31 03:29:09;;;;;;;4.25;1.48;;;;;;;8.95;74.18;100625.91;7424867;19;20018;-64
2023/12/31 03:31:37;;;;;;;2.92;1.27;;;;;;;8.86;74.54;100616.00;7422233;19;20037;-64
2023/12/31 03:34:06;;;;;;;6.13;1.60;;;;;;;8.89;74.47;100634.25;7426060;19;20558;-64
2023/12/31 03:36:35;;;;;;;3.90;1.20;;;;;;;8.91;74.40;100622.66;7426193;19;20026;-63
2023/12/31 03:39:03;;;;;;;4.20;1.30;;;;;;;8.79;75.09;100616.41;7424658;19;20014;-63
2023/12/31 03:41:30;;;;;;;3.65;1.30;;;;;;;8.85;74.83;100603.72;7425524;19;20355;-63
2023/12/31 03:44:00;;;;;;;6.45;1.58;;;;;;;8.87;74.61;100604.47;7425438;19;20021;-63
2023/12/31 03:46:28;;;;;;;4.63;1.10;;;;;;;8.85;74.51;100607.22;7425177;19;20025;-63
2023/12/31 03:48:56;;;;;;;4.50;1.42;;;;;;;8.83;74.61;100593.28;7424111;19;20046;-63
2023/12/31 03:51:24;;;;;;;4.18;1.55;;;;;;;8.93;74.44;100596.13;7423550;19;20040;-63
2023/12/31 03:53:52;;;;;;;5.13;1.48;;;;;;;8.95;74.35;100587.16;7423719;19;20018;-63
2023/12/31 03:56:20;;;;;;;6.18;1.45;;;;;;;8.87;74.30;100581.56;7425229;19;20347;-63
2023/12/31 03:58:48;;;;;;;5.38;1.50;;;;;;;8.81;74.70;100589.88;7423744;19;20035;-63
2023/12/31 04:01:16;;;;;;;5.97;1.00;;;;;;;8.83;74.73;100590.66;7420941;19;20019;-63
2023/12/31 04:03:44;;;;;;;3.55;1.40;;;;;;;8.76;74.65;100577.00;7396029;19;20088;-63
2023/12/31 04:06:12;;;;;;;5.35;1.25;;;;;;;8.72;74.79;100554.41;7394767;19;20014;-63
2023/12/31 04:08:40;;;;;;;5.63;1.20;;;;;;;8.83;74.67;100558.13;7394264;19;20018;-63
2023/12/31 04:11:07;;;;;;;6.80;1.02;;;;;;;8.84;74.65;100539.50;7393101;19;20018;-63
2023/12/31 04:13:36;;;;;;;3.58;1.10;;;;;;;8.81;75.05;100546.81;7396203;19;20034;-63
2023/12/31 04:16:04;;;;;;;4.55;1.30;;;;;;;8.84;74.90;100534.25;7396282;19;20025;-63
2023/12/31 04:18:32;;;;;;;3.47;1.25;;;;;;;8.79;75.07;100524.00;7394506;19;20031;-63
2023/12/31 04:21:00;;;;;;;5.70;1.75;;;;;;;8.68;75.40;100523.91;7395895;19;20035;-63
2023/12/31 04:23:28;;;;;;;5.78;1.58;;;;;;;8.70;75.23;100522.03;7395432;19;20023;-64
2023/12/31 04:25:56;;;;;;;4.93;1.30;;;;;;;8.74;75.58;100514.72;7395817;19;20026;-64
2023/12/31 04:28:25;;;;;;;5.85;1.58;;;;;;;8.71;75.06;100502.56;7394559;19;20459;-64
2023/12/31 04:30:53;;;;;;;8.18;1.58;;;;;;;8.78;75.31;100497.72;7394584;19;20022;-64
2023/12/31 04:33:24;;;;;;;4.15;1.27;;;;;;;8.79;74.91;100491.47;7395371;19;20025;-64
2023/12/31 04:35:52;;;;;;;3.78;1.55;;;;;;;8.75;75.06;100490.00;7394906;19;20015;-64
2023/12/31 04:38:20;;;;;;;5.18;1.48;;;;;;;8.75;75.24;100492.66;7394425;19;20031;-63
2023/12/31 04:40:48;;;;;;;4.32;1.40;;;;;;;8.63;75.73;100490.88;7394115;19;20015;-63
2023/12/31 04:43:15;;;;;;;5.85;1.73;;;;;;;8.60;76.07;100485.81;7394132;19;20022;-63
2023/12/31 04:45:43;;;;;;;5.85;1.60;;;;;;;8.63;75.76;100477.69;7392793;19;20522;-63
2023/12/31 04:48:11;;;;;;;7.03;1.45;;;;;;;8.69;75.88;100467.50;7393024;19;20018;-63
2023/12/31 04:50:39;;;;;;;5.15;1.20;;;;;;;8.63;75.98;100457.41;7393183;19;20356;-63
2023/12/31 04:53:07;;;;;;;6.15;1.48;;;;;;;8.55;76.09;100443.91;7394404;19;20112;-63
2023/12/31 04:55:35;;;;;;;6.22;1.23;;;;;;;8.57;76.12;100441.16;7394043;19;20086;-63
2023/12/31 04:58:03;;;;;;;3.97;1.33;;;;;;;8.52;76.26;100444.13;7395758;19;20023;-63
2023/12/31 05:00:30;;;;;;;3.67;1.52;;;;;;;8.42;76.77;100437.78;7393322;19;20015;-63
2023/12/31 05:02:58;;;;;;;6.53;1.27;;;;;;;8.45;76.56;100430.50;7394457;19;20022;-63
2023/12/31 05:05:27;;;;;;;5.32;1.30;;;;;;;8.40;76.80;100432.63;7396182;19;20415;-63
2023/12/31 05:07:54;;;;;;;4.43;1.70;;;;;;;8.48;76.89;100432.09;7395811;19;20018;-63
2023/12/31 05:10:22;;;;;;;6.30;2.08;;;;;;;8.40;77.21;100434.44;7393441;19;20022;-63
2023/12/31 05:12:50;;;;;;;3.78;1.40;;;;;;;8.42;76.95;100428.06;7395384;19;20014;-63
2023/12/31 05:15:18;;;;;;;5.95;1.48;;;;;;;8.48;76.98;100426.81;7394803;19;20026;-63
2023/12/31 05:17:46;;;;;;;4.53;1.40;;;;;;;8.41;77.11;100422.91;7395520;19;20050;-63
2023/12/31 05:20:13;;;;;;;4.88;1.40;;;;;;;8.45;76.90;100422.59;7393393;19;20046;-64
2023/12/31 05:22:41;;;;;;;6.32;1.50;;;;;;;8.36;77.41;100407.38;7395944;19;20035;-63
2023/12/31 05:25:09;;;;;;;6.72;1.77;;;;;;;8.38;77.30;100407.28;7394325;19;20037;-63
2023/12/31 05:27:37;;;;;;;4.55;1.52;;;;;;;8.33;77.20;100391.75;7393494;19;20011;-63
2023/12/31 05:30:06;;;;;;;5.07;1.40;;;;;;;8.30;77.63;100389.31;7391276;19;20010;-63
2023/12/31 05:32:34;;;;;;;3.75;1.60;;;;;;;8.30;77.77;100384.88;7391334;19;20548;-63
2023/12/31 05:35:02;;;;;;;4.68;1.40;;;;;;;8.29;77.60;100383.22;7391766;19;20022;-63
2023/12/31 05:37:30;;;;;;;4.72;1.30;;;;;;;8.30;77.68;100381.41;7391468;19;20022;-63
2023/12/31 05:39:58;;;;;;;4.95;1.42;;;;;;;8.26;78.03;100379.94;7390957;19;20483;-63
2023/12/31 05:42:27;;;;;;;4.53;1.48;;;;;;;8.24;77.99;100363.38;7392684;19;20015;-63
2023/12/31 05:44:55;;;;;;;4.85;1.30;;;;;;;8.40;77.80;100371.94;7393186;19;20030;-63
2023/12/31 05:47:23;;;;;;;4.40;1.42;;;;;;;8.44;77.30;100365.50;7393464;19;20082;-63
2023/12/31 05:50:10;;;;;;;5.68;1.48;;;;;;;8.28;77.93;100357.78;7390715;19;20019;-63
2023/12/31 05:52:39;;;;;;;4.07;1.40;;;;;;;8.29;77.95;100354.19;7391282;19;20023;-63
2023/12/31 05:55:07;;;;;;;3.65;1.50;;;;;;;8.26;78.03;100348.28;7390976;19;20129;-63
2023/12/31 05:57:38;;;;;;;3.70;1.20;;;;;;;8.32;77.90;100347.88;7391622;19;20038;-63
2023/12/31 06:00:07;;;;;;;4.35;1.30;;;;;;;8.28;78.35;100347.25;7390371;19;20077;-63
2023/12/31 06:02:35;;;;;;;5.72;1.50;;;;;;;8.25;78.48;100326.34;7391980;19;20022;-63
2023/12/31 06:05:03;;;;;;;3.42;1.40;;;;;;;8.34;77.96;100331.91;7390463;19;20553;-63
2023/12/31 06:07:31;;;;;;;2.83;1.40;;;;;;;8.39;77.91;100330.66;7391654;19;20089;-64
2023/12/31 06:09:59;;;;;;;3.10;1.20;;;;;;;8.30;78.12;100318.94;7389685;19;20042;-64
2023/12/31 06:12:28;;;;;;;6.53;1.80;;;;;;;8.36;78.04;100322.94;7391072;19;20053;-63
2023/12/31 06:14:55;;;;;;;4.55;1.40;;;;;;;8.21;78.45;100321.41;7392824;19;20017;-64
2023/12/31 06:17:23;;;;;;;5.40;1.52;;;;;;;8.20;78.68;100317.91;7392276;19;20025;-64
2023/12/31 06:19:51;;;;;;;5.35;1.70;;;;;;;8.22;78.48;100299.34;7389639;19;20379;-64
2023/12/31 06:22:19;;;;;;;3.67;1.50;;;;;;;8.30;78.44;100300.47;7391553;19;20093;-64
2023/12/31 06:24:47;;;;;;;7.35;2.13;;;;;;;8.27;78.74;100297.22;7390755;19;20048;-64
2023/12/31 06:27:15;;;;;;;3.60;1.40;;;;;;;8.35;78.28;100291.38;7390950;19;20486;-63
2023/12/31 06:29:43;;;;;;;5.68;1.60;;;;;;;8.24;78.72;100287.75;7390331;19;20022;-63
2023/12/31 06:32:11;;;;;;;4.45;1.55;;;;;;;8.20;78.79;100280.97;7390580;19;20063;-63
2023/12/31 06:34:39;;;;;;;4.88;2.10;;;;;;;8.27;78.63;100278.75;7391419;19;20040;-64
2023/12/31 06:37:07;;;;;;;4.88;1.58;;;;;;;8.30;78.66;100282.00;7389362;19;20510;-64
2023/12/31 06:39:34;;;;;;;5.68;1.60;;;;;;;8.36;78.40;100285.19;7390354;19;20026;-64
2023/12/31 06:42:02;;;;;;;4.20;1.60;;;;;;;8.36;78.51;100279.91;7391733;19;20018;-63
2023/12/31 06:44:30;;;;;;;4.97;1.55;;;;;;;8.33;78.75;100280.13;7390925;19;20026;-63
2023/12/31 06:46:58;;;;;;;5.40;1.92;;;;;;;8.25;78.92;100280.66;7391237;19;20050;-63
2023/12/31 06:49:26;;;;;;;3.20;1.55;;;;;;;8.27;78.89;100270.84;7386295;19;20014;-63
2023/12/31 06:51:54;;;;;;;4.28;1.67;;;;;;;8.26;79.00;100264.72;7389445;19;20025;-63
2023/12/31 06:54:22;;;;;;;3.97;1.90;;;;;;;8.25;79.15;100249.00;7389829;19;20025;-63
2023/12/31 06:56:50;;;;;;;7.53;1.80;;;;;;;8.31;78.75;100264.38;7391072;19;20027;-63
2023/12/31 06:59:18;;;;;;;5.00;1.80;;;;;;;8.28;78.91;100251.44;7389230;19;20096;-62
2023/12/31 07:01:46;;;;;;;5.20;1.98;;;;;;;8.28;78.69;100249.63;7394315;19;20503;-63
2023/12/31 07:04:14;;;;;;;5.28;1.77;;;;;;;8.36;78.87;100246.44;7391193;19;20097;-63
2023/12/31 07:06:42;;;;;;;6.32;1.95;;;;;;;8.27;78.60;100232.09;7391290;19;20010;-63
2023/12/31 07:09:10;;;;;;;6.38;1.85;;;;;;;8.38;78.57;100241.06;7389173;19;20018;-63
2023/12/31 07:11:38;;;;;;;5.63;2.05;;;;;;;8.42;78.50;100240.72;7389884;19;20036;-63
2023/12/31 07:14:06;;;;;;;6.35;1.85;;;;;;;8.37;78.55;100239.38;7390537;19;20025;-63
2023/12/31 07:16:34;;;;;;;4.75;1.92;;;;;;;8.42;78.45;100231.97;7391190;19;20019;-63
2023/12/31 07:19:02;;;;;;;5.40;1.88;;;;;;;8.36;78.66;100222.69;7387432;19;20019;-63
2023/12/31 07:21:30;;;;;;;4.15;1.80;;;;;;;8.36;78.71;100216.59;7390838;19;20022;-62
2023/12/31 07:23:58;;;;;;;3.97;2.00;;;;;;;8.43;78.67;100204.63;7390833;19;20038;-62
2023/12/31 07:26:28;;;;;;;4.60;2.00;;;;;;;8.46;78.45;100205.25;7390145;19;20081;-63
2023/12/31 07:28:55;;;;;;;4.78;1.90;;;;;;;8.37;78.53;100208.59;7387988;19;20499;-62
2023/12/31 07:31:38;;;;;;;6.80;1.88;;;;;;;8.39;78.49;100195.25;7390641;19;20010;-62
2023/12/31 07:34:07;;;;;;;3.88;1.80;;;;;;;8.24;78.75;100190.16;7389681;19;20015;-62
2023/12/31 07:36:35;;;;;;;7.90;1.90;;;;;;;8.24;78.60;100178.72;7390542;19;20018;-62
2023/12/31 07:39:03;;;;;;;6.45;2.47;;;;;;;8.33;78.94;100193.91;7394593;19;20403;-63
2023/12/31 07:41:32;;;;;;;4.55;2.05;;;;;;;8.36;78.75;100179.66;7397089;19;20019;-62
2023/12/31 07:44:00;;;;;;;5.85;1.80;;;;;;;8.40;78.72;100183.78;7396822;19;20021;-63
2023/12/31 07:46:29;;;;;;;6.65;1.92;;;;;;;8.45;78.47;100184.28;7395142;19;20729;-62
2023/12/31 07:48:57;;;;;;;3.97;2.00;;;;;;;8.47;78.22;100170.03;7383500;19;20025;-63
2023/12/31 07:57:30;;;;;;;5.72;2.05;;;;;;;8.47;78.61;100154.19;7219925;19;3006938;-58
2023/12/31 07:59:58;;;;;;;3.63;1.77;;;;;;;8.55;78.26;100148.34;7374397;19;20067;-57
2023/12/31 08:02:26;;;;;;;3.22;1.52;;;;;;;8.61;78.11;100144.38;7393783;19;20014;-58
2023/12/31 08:04:54;;;;;;;5.55;1.90;;;;;;;8.54;78.31;100141.34;7393848;19;20015;-58
2023/12/31 08:07:22;;;;;;;7.82;2.10;;;;;;;8.59;78.15;100141.03;7395062;19;20026;-58
2023/12/31 08:09:50;;;;;;;5.40;1.88;;;;;;;8.64;77.84;100139.72;7395475;19;20363;-57
2023/12/31 08:12:18;;;;;;;3.92;1.80;;;;;;;8.60;78.16;100134.78;7393684;19;20022;-56
2023/12/31 08:14:45;;;;;;;6.22;1.70;;;;;;;8.61;78.40;100132.03;7390329;19;20026;-57
2023/12/31 08:17:13;;;;;;;2.88;1.60;;;;;;;8.64;78.14;100128.31;7392355;19;20011;-56
2023/12/31 08:19:41;;;;;;;5.10;1.80;;;;;;;8.67;77.94;100122.81;7399369;19;20011;-57
2023/12/31 08:22:09;;;;;;;4.78;2.28;;;;;;;8.67;78.08;100120.19;7395671;19;20112;-57
2023/12/31 08:24:37;;;;;;;4.95;1.70;;;;;;;8.67;78.12;100120.19;7393689;19;20027;-59
2023/12/31 08:27:05;;;;;;;4.53;1.50;;;;;;;8.67;77.58;100110.47;7393069;19;20022;-58
2023/12/31 08:29:33;;;;;;;4.63;1.98;;;;;;;8.65;77.96;100106.25;7395123;19;20517;-58
2023/12/31 08:32:01;;;;;;;3.85;1.73;;;;;;;8.75;77.62;100097.50;7393268;19;20460;-57
2023/12/31 08:34:29;;;;;;;3.85;1.40;;;;;;;8.87;77.41;100108.91;7393457;19;20018;-59
2023/12/31 08:36:57;;;;;;;4.72;1.50;;;;;;;8.83;76.99;100104.84;7394773;19;20037;-58
2023/12/31 08:39:25;;;;;;;11.00;3.83;;;;;;;8.77;77.40;100113.22;7393295;19;20090;-59
2023/12/31 08:41:53;;;;;;;8.68;4.20;;;;;;;8.82;77.53;100097.03;7394368;19;20015;-59
2023/12/31 08:44:21;;;;;;;8.15;3.17;;;;;;;8.81;77.41;100096.19;7393439;19;20398;-59
2023/12/31 08:46:49;;;;;;;7.40;3.30;;;;;;;8.87;76.92;100092.25;7394643;19;20022;-59
2023/12/31 08:49:18;;;;;;;7.35;3.47;;;;;;;8.86;77.01;100088.75;7394899;19;20018;-59
2023/12/31 08:51:46;;;;;;;16.90;9.35;;;;;;;8.87;77.11;100081.69;7394039;19;20041;-59
2023/12/31 08:54:14;;;;;;;7.22;3.45;;;;;;;8.97;76.79;100088.78;7391481;19;20029;-58
2023/12/31 08:56:42;;;;;;;4.72;1.73;;;;;;;8.94;76.66;100082.88;7394220;19;20039;-58
2023/12/31 08:59:10;;;;;;;3.40;1.48;;;;;;;8.87;77.16;100077.25;7394101;19;20048;-58
2023/12/31 09:01:38;;;;;;;3.33;1.45;;;;;;;8.91;77.11;100076.03;7392720;19;20048;-59
2023/12/31 09:04:07;;;;;;;4.32;1.60;;;;;;;9.03;76.66;100080.34;7393919;19;20130;-56
2023/12/31 09:06:34;;;;;;;3.15;1.40;;;;;;;8.99;76.79;100072.81;7393635;19;20040;-58
2023/12/31 09:09:04;;;;;;;5.20;1.60;;;;;;;8.93;76.74;100073.25;7394036;19;20086;-59
2023/12/31 09:11:33;;;;;;;4.75;1.35;;;;;;;8.92;76.83;100066.31;7394610;19;20014;-59
2023/12/31 09:14:01;;;;;;;3.85;1.90;;;;;;;8.90;76.88;100073.53;7393248;19;20011;-59
2023/12/31 09:16:29;;;;;;;2.88;1.70;;;;;;;9.00;76.65;100071.84;7391361;19;20435;-58
2023/12/31 09:18:57;;;;;;;5.03;1.85;;;;;;;9.07;76.53;100073.03;7394485;19;20010;-59
2023/12/31 09:21:26;;;;;;;3.47;1.40;;;;;;;9.10;76.30;100069.31;7397329;19;20082;-58
2023/12/31 09:23:54;;;;;;;4.40;1.70;;;;;;;9.12;76.18;100062.97;7392594;19;20045;-57
2023/12/31 09:26:22;;;;;;;3.45;1.58;;;;;;;9.21;75.70;100058.75;7392600;19;20014;-58
2023/12/31 09:28:50;;;;;;;4.20;1.58;;;;;;;9.14;75.70;100060.19;7393376;19;20344;-58
2023/12/31 09:31:20;;;;;;;2.78;1.42;;;;;;;9.15;75.86;100056.59;7397117;19;20035;-57
2023/12/31 09:33:48;;;;;;;3.33;1.50;;;;;;;9.29;75.27;100053.69;7390893;19;20085;-57
2023/12/31 09:36:16;;;;;;;6.38;1.63;;;;;;;9.19;75.59;100053.56;7391375;19;20415;-57
2023/12/31 09:38:44;;;;;;;3.40;1.40;;;;;;;9.30;75.37;100052.72;7393199;19;20011;-58
2023/12/31 09:41:23;;;;;;;3.72;1.55;;;;;;;9.36;74.67;100049.59;7391476;19;20050;-58
2023/12/31 09:43:52;;;;;;;2.10;1.30;;;;;;;9.37;75.08;100050.44;7390053;19;20023;-57
2023/12/31 09:46:21;;;;;;;4.53;1.65;;;;;;;9.38;74.94;100041.53;7391912;19;20014;-59
2023/12/31 09:48:53;;;;;;;2.40;1.33;;;;;;;9.33;74.86;100036.63;7393294;19;20101;-57
2023/12/31 09:51:21;;;;;;;2.90;1.50;;;;;;;9.30;75.25;100039.50;7392750;19;20019;-56
2023/12/31 09:53:54;;;;;;;3.08;1.35;;;;;;;9.42;74.81;100041.16;7390365;19;20021;-57
2023/12/31 09:56:23;;;;;;;4.57;1.58;;;;;;;9.41;74.66;100038.66;7392427;19;20018;-57
2023/12/31 09:58:51;;;;;;;2.35;1.40;;;;;;;9.40;74.47;100029.91;7392619;19;20030;-57
2023/12/31 10:01:35;;;;;;;4.10;1.40;;;;;;;9.45;74.32;100033.00;7391576;19;20491;-57
2023/12/31 10:04:08;;;;;;;4.93;1.65;;;;;;;9.52;74.52;100026.25;7392085;19;20081;-56
2023/12/31 10:06:40;;;;;;;2.95;1.50;;;;;;;9.60;74.10;100014.22;7389482;19;20025;-57
2023/12/31 10:09:09;;;;;;;4.28;1.35;;;;;;;9.59;73.75;100005.47;7391057;19;20022;-55
2023/12/31 10:11:39;;;;;;;3.08;1.50;;;;;;;9.54;74.09;99994.44;7389526;19;20504;-55
2023/12/31 10:14:07;;;;;;;2.20;1.27;;;;;;;9.56;73.99;99994.31;7387171;19;20014;-55
2023/12/31 10:16:40;;;;;;;2.75;1.23;;;;;;;9.63;73.38;99983.09;7387406;19;20015;-55
2023/12/31 10:19:08;;;;;;;3.97;1.60;;;;;;;9.62;73.68;99970.03;7391733;19;20021;-57
2023/12/31 10:21:36;;;;;;;4.53;1.50;;;;;;;9.57;73.53;99974.81;7389120;19;20022;-58
2023/12/31 10:24:04;;;;;;;3.30;1.30;;;;;;;9.64;73.70;99968.91;7388988;19;20417;-55
2023/12/31 10:26:33;;;;;;;2.17;1.33;;;;;;;9.67;73.25;99976.59;7391541;19;20083;-54
2023/12/31 10:29:04;;;;;;;4.03;1.70;;;;;;;9.73;73.19;99967.34;7390370;19;20090;-55
2023/12/31 10:31:32;;;;;;;4.07;1.60;;;;;;;9.79;73.19;99973.91;7391552;19;20022;-56
2023/12/31 10:34:12;;;;;;;4.05;1.38;;;;;;;9.95;72.26;99972.47;7388041;19;20036;-59
2023/12/31 10:36:40;;;;;;;4.50;1.27;;;;;;;10.00;72.15;99954.44;7391325;19;20014;-57
2023/12/31 10:39:09;;;;;;;2.15;1.10;;;;;;;9.90;72.35;99939.47;7391380;19;20014;-55
2023/12/31 10:41:39;;;;;;;3.80;1.33;;;;;;;10.00;72.06;99941.22;7391160;19;20022;-56
2023/12/31 10:44:13;;;;;;;4.72;1.55;;;;;;;9.99;72.13;99947.44;7389701;19;20471;-58
2023/12/31 10:46:41;;;;;;;;;;;;;;;9.90;71.52;99953.53;7390794;19;20014;-58
2023/12/31 10:49:11;;;;;;;3.97;1.30;;;;;;;9.98;72.28;99953.72;7390866;19;20253;-58
2023/12/31 10:51:44;;;;;;;3.42;1.40;;;;;;;10.10;72.46;99937.78;7390831;19;20037;-59
2023/12/31 10:54:20;;;;;;;5.45;3.30;;;;;;;10.21;71.46;99927.13;7389113;19;20021;-58
2023/12/31 10:56:49;;;;;;;4.07;1.58;;;;;;;10.24;71.63;99925.06;7389133;19;20044;-59
2023/12/31 10:59:18;;;;;;;3.40;1.52;;;;;;;10.42;70.90;99927.13;7390212;19;20479;-58
2023/12/31 11:01:47;;;;;;;5.80;1.67;;;;;;;10.56;70.54;99918.81;7390744;19;20065;-59
2023/12/31 11:04:17;;;;;;;4.53;1.98;;;;;;;10.59;70.09;99902.66;7389091;19;20391;-59
2023/12/31 11:06:47;;;;;;;3.88;1.55;;;;;;;10.57;70.08;99903.75;7390315;19;20022;-57
2023/12/31 11:09:16;;;;;;;4.47;2.00;;;;;;;10.56;70.49;99908.22;7390643;19;20036;-57
2023/12/31 11:11:44;;;;;;;5.93;1.50;;;;;;;10.52;70.08;99906.81;7391696;19;20022;-57
2023/12/31 11:14:15;;;;;;;4.63;1.38;;;;;;;10.50;70.02;99898.19;7395625;19;20048;-58
2023/12/31 11:17:15;;;;;;;4.93;1.60;;;;;;;10.59;69.63;99899.19;7396442;19;20022;-57
2023/12/31 11:20:05;;;;;;;3.17;1.38;;;;;;;10.51;69.61;99888.44;7397565;19;20018;-58
2023/12/31 11:23:13;;;;;;;4.10;1.40;;;;;;;10.55;69.38;99884.53;7397992;19;20014;-53
2023/12/31 11:25:44;;;;;;;4.18;1.65;;;;;;;10.51;69.97;99876.03;7395126;19;20022;-58
2023/12/31 11:28:12;;;;;;;3.88;1.30;;;;;;;10.44;69.82;99875.72;7397029;19;20023;-58
2023/12/31 11:30:47;;;;;;;2.65;1.30;;;;;;;10.45;69.75;99866.81;7396792;19;20035;-58
2023/12/31 11:33:35;;;;;;;2.90;1.50;;;;;;;10.41;69.76;99878.63;7395918;19;20031;-58
2023/12/31 11:36:11;;;;;;;4.20;1.55;;;;;;;10.46;69.99;99867.66;7396684;19;20014;-58
2023/12/31 11:39:04;;;;;;;2.92;1.40;;;;;;;10.49;69.57;99859.44;7396909;19;20018;-58
2023/12/31 11:41:34;;;;;;;3.60;1.70;;;;;;;10.43;69.40;99859.97;7396876;19;20027;-58
2023/12/31 11:44:02;;;;;;;3.65;1.38;;;;;;;10.48;69.75;99853.31;7396130;19;20368;-58
2023/12/31 11:46:38;;;;;;;3.78;1.77;;;;;;;10.56;69.16;99834.09;7395378;19;20023;-58
2023/12/31 11:49:07;;;;;;;6.60;1.80;;;;;;;10.63;69.32;99834.41;7396976;19;20014;-58
2023/12/31 11:51:51;;;;;;;3.95;1.63;;;;;;;10.67;68.87;99846.38;7396879;19;20328;-58